Semans, Canada
Current Conditions -  °F | °C
As of 7:50 PM on Saturday 20 Dec 2014 (Local Time) from CYQR Reporting Station
Haze Haze  
Wind Chill: 27°   Ceiling: Unl
Heat Index: 27°   Visibility: 2.5mi
Dew Point: 27°   Wind: 2mph
Humidity: 100%   Direction: 280°W
Pressure: 29.69"   Gusts: NA
Location:  51.4°N, 104.73°W
Report Text: CYQR 210150Z 28002KT 2 1/2SM BR SCT017 M03/M03 A2969 RMK SC4 SLP088
Loading
Personal Weather Stations






























Interactive Weather Map New forecast layout! Learn more

10-Day Weather Forecast

Advertisements
Track Severe Weather on mobile